Time;durP1;ratioP1;P1;durP2;ratioP2;P2;SDS_P1;SDS_P2;PMS_P1;PMS_P2;Temp;Humidity;BMP_temperature;BMP_pressure;BME280_temperature;BME280_humidity;BME280_pressure;Samples;Min_cycle;Max_cycle;Signal;HPM_P1;HPM_P2
2021/04/27 00:00:08;;;;;;;5.25;3.95;;;;;;;1.46;77.79;100850.20;1682865;85;21711;-40
2021/04/27 00:02:35;;;;;;;7.15;4.08;;;;;;;1.55;77.66;100849.58;1682859;83;21089;-40
2021/04/27 00:05:05;;;;;;;7.55;4.53;;;;;;;1.59;77.31;100847.55;1682913;85;21388;-40
2021/04/27 00:07:34;;;;;;;4.10;3.67;;;;;;;1.62;76.80;100849.33;1682828;85;21049;-40
2021/04/27 00:10:03;;;;;;;5.12;4.55;;;;;;;1.68;76.64;100850.74;1682954;85;21598;-40
2021/04/27 00:12:31;;;;;;;4.70;4.17;;;;;;;1.72;76.52;100852.53;1682968;85;21638;-40
2021/04/27 00:14:59;;;;;;;6.28;4.28;;;;;;;1.77;76.38;100846.28;1682995;84;21017;-40
2021/04/27 00:17:29;;;;;;;5.95;4.00;;;;;;;1.82;76.16;100851.08;1682890;85;21219;-40
2021/04/27 00:19:57;;;;;;;7.40;4.22;;;;;;;1.84;76.21;100848.14;1682812;84;21061;-40
2021/04/27 00:22:24;;;;;;;5.90;3.98;;;;;;;1.84;76.06;100858.36;1682930;85;21013;-40
2021/04/27 00:24:52;;;;;;;4.42;4.03;;;;;;;1.81;75.91;100850.63;1682871;85;21029;-40
2021/04/27 00:27:19;;;;;;;7.30;4.08;;;;;;;1.80;75.93;100858.72;1682893;85;20934;-40
2021/04/27 00:29:47;;;;;;;7.40;4.75;;;;;;;1.80;76.09;100857.44;1682892;85;21350;-40
2021/04/27 00:32:16;;;;;;;15.98;8.58;;;;;;;1.82;75.99;100855.78;1682820;85;20978;-40
2021/04/27 00:34:43;;;;;;;9.95;6.03;;;;;;;1.81;75.98;100854.45;1682918;84;21057;-40
2021/04/27 00:37:13;;;;;;;5.87;4.35;;;;;;;1.79;76.18;100859.55;1682870;83;21049;-40
2021/04/27 00:39:41;;;;;;;4.17;3.77;;;;;;;1.79;76.26;100858.66;1682948;85;20974;-40
2021/04/27 00:42:10;;;;;;;4.95;4.15;;;;;;;1.82;76.30;100856.18;1696886;83;21213;-40
2021/04/27 00:44:37;;;;;;;4.20;3.75;;;;;;;1.86;76.34;100866.91;1706085;84;21023;-41
2021/04/27 00:47:05;;;;;;;4.60;3.95;;;;;;;1.86;76.33;100861.80;1706193;83;21023;-40
2021/04/27 00:49:33;;;;;;;5.85;4.10;;;;;;;1.88;76.38;100866.96;1706058;84;21067;-40
2021/04/27 00:52:01;;;;;;;6.60;4.40;;;;;;;1.88;76.30;100865.69;1706144;84;21121;-40
2021/04/27 00:57:24;;;;;;;5.15;4.20;;;;;;;1.98;76.10;100862.51;1815935;79;22634;-40
2021/04/27 00:59:52;;;;;;;3.65;3.25;;;;;;;1.98;75.73;100859.95;1788939;80;20935;-40
2021/04/27 01:02:20;;;;;;;5.60;3.40;;;;;;;2.00;75.36;100855.34;1773225;80;21204;-40
2021/04/27 01:04:47;;;;;;;10.90;5.10;;;;;;;2.06;75.47;100854.63;1757676;81;20994;-40
2021/04/27 01:07:15;;;;;;;8.50;4.75;;;;;;;2.11;75.46;100854.31;1757773;81;20962;-40
2021/04/27 01:09:47;;;;;;;4.35;3.47;;;;;;;2.13;75.53;100853.06;1757678;81;21073;-40
2021/04/27 01:12:34;;;;;;;3.25;3.00;;;;;;;2.13;75.38;100851.38;1757827;81;20950;-41
2021/04/27 01:15:12;;;;;;;6.45;3.27;;;;;;;2.16;75.23;100849.33;1751906;81;21220;-40
2021/04/27 01:17:40;;;;;;;3.47;3.17;;;;;;;2.21;74.83;100856.67;1757620;81;21054;-40
2021/04/27 01:20:19;;;;;;;5.25;3.15;;;;;;;2.26;74.83;100858.91;1728543;81;21006;-40
2021/04/27 01:23:15;;;;;;;3.67;3.15;;;;;;;2.40;74.61;100853.22;1889917;76;22725;-40
2021/04/27 01:25:57;;;;;;;4.53;3.52;;;;;;;2.38;74.21;100859.59;1860713;77;21394;-41
2021/04/27 01:28:26;;;;;;;4.25;3.85;;;;;;;2.38;74.06;100844.26;1822860;78;21382;-40
2021/04/27 01:30:55;;;;;;;6.65;4.37;;;;;;;2.41;74.15;100850.70;1822890;78;20986;-40
2021/04/27 01:33:27;;;;;;;4.87;4.30;;;;;;;2.44;74.08;100852.05;1822976;78;20944;-40
2021/04/27 01:35:57;;;;;;;6.85;3.75;;;;;;;2.45;74.06;100843.98;1822877;78;21064;-41
2021/04/27 01:38:26;;;;;;;6.58;5.62;;;;;;;2.47;74.34;100841.44;1822989;78;20972;-40
2021/04/27 01:40:54;;;;;;;3.70;3.02;;;;;;;2.47;74.13;100842.31;1822942;78;21426;-40
2021/04/27 01:43:24;;;;;;;3.52;3.25;;;;;;;2.48;73.89;100841.48;1791803;78;21091;-40
2021/04/27 01:46:00;;;;;;;4.80;3.12;;;;;;;2.50;73.77;100842.78;1791412;78;21039;-40
2021/04/27 01:48:28;;;;;;;3.00;2.72;;;;;;;2.53;73.91;100844.99;1822997;78;21509;-41
2021/04/27 01:50:56;;;;;;;2.85;2.60;;;;;;;2.56;73.72;100849.32;1822974;78;20881;-41
2021/04/27 01:53:43;;;;;;;3.17;2.72;;;;;;;2.56;73.44;100846.33;1823084;78;23789;-40
2021/04/27 01:56:11;;;;;;;6.20;3.25;;;;;;;2.59;73.41;100854.06;1765730;78;21016;-40
2021/04/27 01:58:39;;;;;;;3.58;2.98;;;;;;;2.62;73.57;100852.00;1822882;78;20952;-40
2021/04/27 02:01:07;;;;;;;3.25;2.62;;;;;;;2.65;73.69;100851.17;1822865;78;21087;-40
2021/04/27 02:03:43;;;;;;;2.90;2.65;;;;;;;2.64;73.36;100850.33;1790526;80;21039;-40
2021/04/27 02:06:18;;;;;;;3.15;2.50;;;;;;;2.69;73.50;100847.88;1847546;76;22808;-40
2021/04/27 02:08:54;;;;;;;7.60;2.90;;;;;;;2.65;73.36;100849.90;1817760;79;20994;-41
2021/04/27 02:11:23;;;;;;;2.87;2.62;;;;;;;2.65;73.38;100851.17;1817742;78;21360;-41
2021/04/27 02:13:50;;;;;;;2.62;2.42;;;;;;;2.65;73.45;100851.17;1817675;78;21069;-41
2021/04/27 02:16:19;;;;;;;2.90;2.58;;;;;;;2.63;73.50;100852.84;1817769;77;20994;-41
2021/04/27 02:18:54;;;;;;;3.22;2.98;;;;;;;2.62;73.63;100860.06;1817776;79;20989;-41
2021/04/27 02:21:23;;;;;;;3.67;2.70;;;;;;;2.61;73.70;100863.45;1817746;79;20966;-41
2021/04/27 02:24:11;;;;;;;3.58;2.30;;;;;;;2.63;73.69;100857.95;1817774;79;21347;-40
2021/04/27 02:26:41;;;;;;;4.45;2.83;;;;;;;2.66;73.50;100865.28;1817394;79;21053;-40
2021/04/27 02:29:11;;;;;;;2.92;2.62;;;;;;;2.70;73.53;100866.22;1816010;79;20998;-41
2021/04/27 02:31:39;;;;;;;5.08;3.02;;;;;;;2.72;73.68;100867.11;1817730;79;20919;-40
2021/04/27 02:34:06;;;;;;;10.00;3.60;;;;;;;2.73;73.52;100866.28;1817837;79;21050;-40
2021/04/27 02:36:38;;;;;;;4.35;2.95;;;;;;;2.76;73.41;100861.22;1817672;77;21434;-40
2021/04/27 02:39:09;;;;;;;2.80;2.60;;;;;;;2.78;73.19;100862.52;1817224;79;20943;-40
2021/04/27 02:41:38;;;;;;;3.10;2.80;;;;;;;2.80;73.34;100867.27;1817726;79;20974;-40
2021/04/27 02:44:11;;;;;;;4.85;2.87;;;;;;;2.79;73.34;100874.06;1815966;79;21049;-40
2021/04/27 02:46:39;;;;;;;2.75;2.50;;;;;;;2.80;73.18;100873.23;1817780;79;20923;-40
2021/04/27 02:49:07;;;;;;;3.58;2.83;;;;;;;2.83;72.67;100877.56;1817721;78;21568;-40
2021/04/27 02:51:37;;;;;;;4.17;3.10;;;;;;;2.87;72.87;100878.06;1817695;79;21595;-40
2021/04/27 02:54:07;;;;;;;2.98;2.77;;;;;;;2.90;72.83;100871.73;1817651;79;21543;-41
2021/04/27 02:56:37;;;;;;;3.27;2.60;;;;;;;2.96;72.92;100878.23;1817704;79;20919;-40
2021/04/27 02:59:05;;;;;;;3.80;3.00;;;;;;;2.96;72.74;100871.84;1817767;78;20919;-40
2021/04/27 03:01:34;;;;;;;3.05;2.52;;;;;;;2.97;72.79;100877.40;1812070;78;21318;-40
2021/04/27 03:04:05;;;;;;;3.02;2.83;;;;;;;2.95;72.89;100873.95;1785270;80;21026;-40
2021/04/27 03:06:35;;;;;;;6.85;2.72;;;;;;;2.93;73.00;100876.90;1787801;80;20986;-40
2021/04/27 03:09:05;;;;;;;2.75;2.40;;;;;;;2.93;73.05;100879.45;1790766;80;21007;-40
2021/04/27 03:11:34;;;;;;;5.03;3.30;;;;;;;2.94;73.25;100880.34;1791636;80;20989;-40
2021/04/27 03:14:03;;;;;;;3.37;2.83;;;;;;;2.93;73.41;100879.45;1791669;78;21365;-40
2021/04/27 03:16:33;;;;;;;4.33;2.83;;;;;;;2.95;73.26;100882.06;1791322;80;20942;-40
2021/04/27 03:19:01;;;;;;;5.28;2.85;;;;;;;2.97;73.21;100885.51;1791053;80;20947;-40
2021/04/27 03:21:31;;;;;;;13.75;3.37;;;;;;;2.97;73.29;100882.95;1791018;80;21076;-40
2021/04/27 03:23:59;;;;;;;6.17;3.12;;;;;;;3.00;73.33;100878.73;1791165;78;20914;-40
2021/04/27 03:26:26;;;;;;;9.40;3.58;;;;;;;3.02;73.18;100877.50;1791034;80;21335;-40
2021/04/27 03:28:56;;;;;;;7.35;3.08;;;;;;;3.03;73.62;100875.39;1788848;80;21037;-41
2021/04/27 03:31:25;;;;;;;3.17;2.87;;;;;;;3.05;73.77;100876.27;1791035;78;21499;-40
2021/04/27 03:33:53;;;;;;;4.00;2.85;;;;;;;3.07;73.89;100869.48;1791060;78;21021;-41
2021/04/27 03:36:22;;;;;;;7.35;4.12;;;;;;;3.08;73.84;100868.66;1791058;80;21013;-40
2021/04/27 03:38:51;;;;;;;5.33;4.75;;;;;;;3.10;74.02;100869.55;1791102;79;21493;-40
2021/04/27 03:41:20;;;;;;;3.50;2.87;;;;;;;3.10;73.96;100869.55;1791049;80;21577;-40
2021/04/27 03:43:49;;;;;;;4.08;2.85;;;;;;;3.10;73.90;100866.98;1791070;80;20891;-40
2021/04/27 03:46:18;;;;;;;6.55;3.02;;;;;;;3.13;74.02;100873.44;1790984;80;20978;-40
2021/04/27 03:48:45;;;;;;;5.33;2.98;;;;;;;3.16;73.91;100865.84;1791032;80;20990;-40
2021/04/27 03:51:14;;;;;;;2.47;2.27;;;;;;;3.21;73.75;100872.31;1791175;80;22271;-40
2021/04/27 03:53:41;;;;;;;4.00;2.92;;;;;;;3.21;73.12;100868.91;1790944;80;21006;-40
2021/04/27 03:56:10;;;;;;;5.03;2.83;;;;;;;3.20;72.97;100871.02;1790434;80;21089;-41
2021/04/27 03:58:40;;;;;;;3.77;2.77;;;;;;;3.19;72.90;100866.73;1791009;80;20919;-41
2021/04/27 04:01:09;;;;;;;3.08;2.77;;;;;;;3.22;72.90;100874.47;1790969;80;20934;-41
2021/04/27 04:03:41;;;;;;;3.70;2.50;;;;;;;3.32;72.60;100866.55;1791056;80;21261;-41
2021/04/27 04:06:10;;;;;;;3.27;2.70;;;;;;;3.42;72.48;100864.17;1786698;79;21460;-41
2021/04/27 04:08:54;;;;;;;2.77;2.30;;;;;;;3.56;72.24;100867.37;1784916;80;21057;-40
2021/04/27 04:11:23;;;;;;;2.70;2.37;;;;;;;3.66;72.05;100862.00;1784909;80;20971;-40
2021/04/27 04:13:51;;;;;;;4.83;2.45;;;;;;;3.71;71.82;100862.52;1784961;79;20994;-40
2021/04/27 04:16:19;;;;;;;2.62;2.42;;;;;;;3.76;71.68;100858.73;1784979;80;22251;-40
2021/04/27 04:18:49;;;;;;;2.75;2.52;;;;;;;3.88;71.64;100864.06;1784833;80;20935;-41
2021/04/27 04:21:19;;;;;;;2.42;2.22;;;;;;;4.03;71.34;100864.72;1784898;80;20959;-40
2021/04/27 04:23:53;;;;;;;2.85;2.60;;;;;;;4.18;70.59;100859.39;1784881;80;20994;-41
2021/04/27 04:26:22;;;;;;;13.00;2.90;;;;;;;4.35;70.21;100850.66;1784910;80;20998;-41
2021/04/27 04:28:51;;;;;;;2.52;2.20;;;;;;;4.53;69.87;100844.91;1780642;79;21339;-41
2021/04/27 04:31:19;;;;;;;5.53;2.45;;;;;;;4.69;69.07;100846.38;1784863;80;21067;-41
2021/04/27 04:33:55;;;;;;;2.37;2.17;;;;;;;4.79;68.70;100845.64;1767180;80;21022;-41
2021/04/27 04:36:28;;;;;;;3.62;2.47;;;;;;;4.95;67.90;100850.95;1763932;80;20986;-41
2021/04/27 04:39:13;;;;;;;;;;;;;;;5.05;67.52;100843.78;1787625;80;20899;-41
2021/04/27 04:42:01;;;;;;;2.85;2.20;;;;;;;5.15;67.12;100844.30;1716731;82;21619;-41
2021/04/27 04:44:43;;;;;;;3.83;2.52;;;;;;;5.20;65.78;100843.52;1712959;83;21049;-40
2021/04/27 04:47:30;;;;;;;4.12;2.20;;;;;;;5.24;65.69;100846.11;1847613;76;22704;-40
2021/04/27 04:50:16;;;;;;;4.70;2.50;;;;;;;5.17;65.84;100850.75;1817922;78;20938;-42
2021/04/27 04:53:01;;;;;;;3.15;2.12;;;;;;;5.09;65.94;100848.09;1813279;79;21206;-41
2021/04/27 04:55:34;;;;;;;2.90;2.50;;;;;;;5.29;65.75;100843.59;1816385;79;20954;-41
2021/04/27 04:58:16;;;;;;;2.67;2.45;;;;;;;5.29;65.75;100843.59;1817175;79;21006;-41
2021/04/27 05:00:58;;;;;;;3.83;2.70;;;;;;;5.46;65.47;100836.92;1817758;79;20978;-41
2021/04/27 05:03:29;;;;;;;2.47;2.27;;;;;;;5.74;64.83;100832.00;1784780;79;21049;-41
2021/04/27 05:06:17;;;;;;;3.25;2.05;;;;;;;5.94;63.78;100827.44;1785584;80;22149;-41
2021/04/27 05:09:05;;;;;;;2.65;2.42;;;;;;;6.15;63.57;100811.72;1785518;80;20956;-41
2021/04/27 05:11:50;;;;;;;2.05;1.95;;;;;;;6.46;63.38;100815.75;1785134;80;21038;-41
2021/04/27 05:14:38;;;;;;;3.72;2.62;;;;;;;6.72;62.06;100813.71;1785522;80;21060;-41
2021/04/27 05:17:09;;;;;;;2.62;2.40;;;;;;;6.97;62.28;100813.33;1785692;80;20931;-41
2021/04/27 05:19:37;;;;;;;4.75;2.50;;;;;;;7.19;60.65;100821.94;1785632;79;22312;-41
2021/04/27 05:22:07;;;;;;;2.55;2.33;;;;;;;7.30;58.89;100823.69;1785550;79;21025;-41
2021/04/27 05:24:37;;;;;;;5.70;2.70;;;;;;;7.33;58.42;100821.11;1785502;80;21017;-41
2021/04/27 05:27:15;;;;;;;4.60;2.60;;;;;;;7.42;59.26;100813.37;1784264;80;21037;-41
2021/04/27 05:29:43;;;;;;;4.58;2.50;;;;;;;7.65;59.56;100817.67;1785530;80;21023;-41
2021/04/27 05:32:11;;;;;;;6.28;2.98;;;;;;;7.84;58.76;100812.09;1785607;80;21145;-42
2021/04/27 05:34:39;;;;;;;4.80;2.90;;;;;;;7.96;58.76;100807.35;1785523;80;20950;-42
2021/04/27 05:37:06;;;;;;;3.25;2.90;;;;;;;8.08;57.35;100800.44;1785516;80;20982;-42
2021/04/27 05:39:34;;;;;;;5.47;2.67;;;;;;;8.04;56.96;100804.31;1785493;80;21049;-41
2021/04/27 05:42:02;;;;;;;4.90;3.58;;;;;;;8.09;57.01;100799.58;1785508;79;21002;-41
2021/04/27 05:44:30;;;;;;;5.25;2.70;;;;;;;8.13;56.54;100812.87;1785639;80;22321;-42
2021/04/27 05:46:58;;;;;;;4.67;2.80;;;;;;;8.10;57.21;100815.47;1785404;80;21041;-41
2021/04/27 05:49:27;;;;;;;2.70;2.45;;;;;;;8.11;56.86;100824.50;1785527;80;21077;-41
2021/04/27 05:51:54;;;;;;;3.27;2.87;;;;;;;8.03;57.64;100831.38;1785442;80;20966;-42
2021/04/27 05:54:22;;;;;;;12.47;2.75;;;;;;;8.08;57.50;100831.38;1785532;79;21013;-42
2021/04/27 05:56:49;;;;;;;12.43;2.87;;;;;;;8.04;56.85;100831.80;1785477;80;21328;-42
2021/04/27 05:59:17;;;;;;;3.60;2.70;;;;;;;8.01;57.20;100839.55;1784878;80;20966;-42
2021/04/27 06:01:45;;;;;;;5.95;2.67;;;;;;;8.02;57.95;100843.42;1784890;79;21033;-40
2021/04/27 06:04:12;;;;;;;4.87;2.30;;;;;;;8.09;58.62;100843.41;1784942;80;20983;-40
2021/04/27 06:06:40;;;;;;;2.77;2.30;;;;;;;8.13;58.19;100841.25;1784993;80;20939;-41
2021/04/27 06:09:08;;;;;;;2.52;2.30;;;;;;;8.07;57.88;100847.27;1785007;80;21315;-39
2021/04/27 06:11:38;;;;;;;4.72;2.80;;;;;;;7.99;58.18;100841.27;1784891;79;20946;-40
2021/04/27 06:14:07;;;;;;;4.60;2.80;;;;;;;7.95;58.53;100851.16;1784893;80;20927;-40
2021/04/27 06:16:34;;;;;;;5.78;2.65;;;;;;;7.85;58.91;100846.45;1784939;80;21019;-41
2021/04/27 06:19:04;;;;;;;6.50;3.05;;;;;;;7.89;59.38;100853.31;1785058;80;21022;-41
2021/04/27 06:21:32;;;;;;;5.53;3.05;;;;;;;8.00;59.14;100849.44;1784970;80;21132;-41
2021/04/27 06:24:00;;;;;;;4.95;2.77;;;;;;;8.15;58.40;100845.55;1784947;79;20943;-41
2021/04/27 06:26:27;;;;;;;3.47;3.17;;;;;;;8.30;58.43;100843.36;1784905;80;20997;-40
2021/04/27 06:28:55;;;;;;;3.20;2.90;;;;;;;8.41;58.20;100847.20;1784961;80;21002;-40
2021/04/27 06:31:23;;;;;;;4.45;3.00;;;;;;;8.53;57.90;100848.92;1784996;80;20982;-42
2021/04/27 06:33:51;;;;;;;3.52;2.50;;;;;;;8.71;57.88;100847.98;1784994;79;21210;-42
2021/04/27 06:36:20;;;;;;;4.83;2.55;;;;;;;8.87;55.59;100840.17;1784872;80;20947;-42
2021/04/27 06:38:48;;;;;;;6.65;2.67;;;;;;;8.88;52.56;100840.59;1784910;80;20927;-42
2021/04/27 06:41:17;;;;;;;2.55;2.30;;;;;;;8.76;54.53;100842.80;1784924;79;21014;-42
2021/04/27 06:43:44;;;;;;;2.75;2.27;;;;;;;8.82;54.42;100847.93;1785000;79;21058;-41
2021/04/27 06:46:13;;;;;;;3.83;2.55;;;;;;;8.89;54.23;100842.31;1784840;78;21528;-42
2021/04/27 06:48:40;;;;;;;9.43;2.80;;;;;;;8.91;53.52;100847.87;1784894;79;20979;-41
2021/04/27 06:51:09;;;;;;;3.12;2.72;;;;;;;8.85;54.33;100841.91;1784878;80;20982;-41
2021/04/27 06:53:37;;;;;;;10.50;2.80;;;;;;;8.98;54.21;100850.45;1784841;80;21045;-41
2021/04/27 06:56:05;;;;;;;3.42;2.67;;;;;;;9.11;52.47;100851.23;1784893;80;20986;-41
2021/04/27 06:58:33;;;;;;;7.40;2.27;;;;;;;9.06;52.27;100845.62;1784905;80;21191;-41
2021/04/27 07:01:01;;;;;;;5.42;2.72;;;;;;;9.20;50.99;100845.99;1784838;79;21065;-41
2021/04/27 07:03:29;;;;;;;3.72;2.60;;;;;;;8.98;51.64;100854.31;1784854;79;20938;-42
2021/04/27 07:05:57;;;;;;;4.92;2.85;;;;;;;8.87;52.38;100847.47;1784844;80;21074;-42
2021/04/27 07:08:26;;;;;;;3.52;2.52;;;;;;;8.97;53.23;100853.86;1784924;80;21065;-41
2021/04/27 07:10:57;;;;;;;6.58;2.30;;;;;;;9.17;53.06;100851.19;1784934;80;20994;-41
2021/04/27 07:13:26;;;;;;;2.67;2.47;;;;;;;9.22;52.34;100848.55;1784835;80;20998;-41
2021/04/27 07:15:55;;;;;;;3.05;2.75;;;;;;;9.22;52.07;100846.84;1784834;80;20990;-42
2021/04/27 07:18:22;;;;;;;7.20;3.10;;;;;;;9.30;52.57;100847.63;1784870;79;21058;-42
2021/04/27 07:20:51;;;;;;;5.62;2.45;;;;;;;9.53;54.03;100845.77;1784988;80;21386;-42
2021/04/27 07:23:18;;;;;;;3.45;3.05;;;;;;;9.73;51.57;100834.84;1784916;80;21159;-42
2021/04/27 07:25:46;;;;;;;4.25;2.45;;;;;;;9.68;51.43;100837.88;1784863;80;21014;-42
2021/04/27 07:28:14;;;;;;;3.33;2.67;;;;;;;9.63;51.22;100834.48;1784900;80;20931;-42
2021/04/27 07:30:41;;;;;;;4.22;2.87;;;;;;;9.76;51.66;100835.23;1784874;80;21010;-42
2021/04/27 07:33:09;;;;;;;5.97;3.00;;;;;;;9.84;49.83;100831.28;1784887;79;21088;-42
2021/04/27 07:35:37;;;;;;;7.17;2.90;;;;;;;9.82;48.56;100835.16;1784887;80;21441;-42
2021/04/27 07:38:05;;;;;;;3.62;2.37;;;;;;;9.72;49.51;100840.01;1784782;80;21025;-42
2021/04/27 07:40:34;;;;;;;5.67;2.70;;;;;;;9.73;49.62;100839.14;1784906;80;21034;-42
2021/04/27 07:43:01;;;;;;;8.20;3.45;;;;;;;9.76;49.52;100838.69;1784742;80;20986;-42
2021/04/27 07:45:31;;;;;;;10.95;2.70;;;;;;;9.84;49.10;100836.00;1784843;80;21017;-42
2021/04/27 07:48:02;;;;;;;2.80;2.60;;;;;;;9.95;48.99;100833.77;1795907;79;21403;-41
2021/04/27 07:50:30;;;;;;;8.55;2.85;;;;;;;9.89;49.10;100835.55;1799321;79;20994;-42
2021/04/27 07:52:58;;;;;;;6.60;2.85;;;;;;;9.75;49.94;100833.52;1799428;79;20915;-40
2021/04/27 07:55:26;;;;;;;4.75;2.50;;;;;;;9.87;49.43;100833.84;1799377;79;21029;-40
2021/04/27 07:57:53;;;;;;;3.10;2.80;;;;;;;10.09;49.57;100840.09;1799376;79;21030;-40
2021/04/27 08:00:22;;;;;;;2.90;2.62;;;;;;;10.27;49.26;100834.73;1799397;79;21192;-41
2021/04/27 08:02:51;;;;;;;10.55;3.10;;;;;;;10.33;48.32;100837.25;1799222;78;20978;-41
2021/04/27 08:05:20;;;;;;;3.72;2.40;;;;;;;10.24;48.10;100837.36;1799415;79;20978;-42
2021/04/27 08:07:47;;;;;;;4.25;2.95;;;;;;;10.11;48.88;100835.34;1799345;79;20962;-42
2021/04/27 08:10:15;;;;;;;5.47;2.95;;;;;;;10.09;49.22;100834.92;1799393;79;21017;-42
2021/04/27 08:12:46;;;;;;;4.45;3.00;;;;;;;10.12;48.62;100825.83;1799339;79;21363;-42
2021/04/27 08:15:17;;;;;;;10.10;3.08;;;;;;;10.06;48.27;100825.45;1799337;79;21491;-42
2021/04/27 08:17:45;;;;;;;6.15;2.75;;;;;;;10.09;49.03;100831.04;1799349;78;21037;-40
2021/04/27 08:20:14;;;;;;;4.00;2.90;;;;;;;10.14;48.81;100826.67;1799259;79;21065;-42
2021/04/27 08:22:44;;;;;;;4.00;2.85;;;;;;;10.21;47.77;100825.72;1773341;79;21001;-41
2021/04/27 08:25:14;;;;;;;3.00;2.80;;;;;;;10.13;48.10;100824.95;1799483;79;21355;-41
2021/04/27 08:27:43;;;;;;;6.87;2.55;;;;;;;10.17;48.19;100818.45;1799248;79;20934;-41
2021/04/27 08:30:12;;;;;;;6.45;2.90;;;;;;;10.20;48.73;100822.30;1799524;79;20914;-41
2021/04/27 08:32:40;;;;;;;13.78;2.95;;;;;;;10.30;48.27;100815.29;1799441;79;21004;-42
2021/04/27 08:35:09;;;;;;;3.27;2.20;;;;;;;10.41;45.68;100820.80;1799420;79;21025;-40
2021/04/27 08:37:37;;;;;;;4.95;2.70;;;;;;;10.33;45.49;100819.13;1799286;79;21299;-41
2021/04/27 08:40:08;;;;;;;3.87;2.30;;;;;;;10.28;45.72;100818.33;1799284;79;20954;-41
2021/04/27 08:42:35;;;;;;;4.62;2.17;;;;;;;10.34;46.53;100813.50;1799315;79;20902;-41
2021/04/27 08:45:07;;;;;;;3.55;2.40;;;;;;;10.45;44.26;100810.82;1799081;79;20926;-41
2021/04/27 08:47:34;;;;;;;4.17;2.33;;;;;;;10.61;45.59;100817.53;1798914;79;21060;-41
2021/04/27 08:50:05;;;;;;;2.55;2.33;;;;;;;10.69;43.10;100807.08;1799432;79;22089;-41
2021/04/27 08:52:32;;;;;;;6.30;2.77;;;;;;;10.53;43.03;100809.02;1799291;79;21609;-41
2021/04/27 08:55:00;;;;;;;2.55;2.33;;;;;;;10.58;43.55;100803.76;1785773;79;20954;-41
2021/04/27 08:57:28;;;;;;;3.83;2.62;;;;;;;10.73;43.19;100802.70;1729878;81;21168;-43
2021/04/27 08:59:55;;;;;;;7.20;2.67;;;;;;;10.81;43.85;100800.01;1779178;80;21029;-41
2021/04/27 09:02:30;;;;;;;170.35;143.22;;;;;;;10.89;42.68;100800.78;1729656;81;21147;-41
2021/04/27 09:04:58;;;;;;;2.87;2.65;;;;;;;10.95;43.57;100798.52;1747678;81;21010;-42
2021/04/27 09:07:30;;;;;;;3.70;2.12;;;;;;;10.76;42.23;100797.05;1729605;81;20985;-42
2021/04/27 09:09:59;;;;;;;13.98;2.30;;;;;;;10.47;42.81;100800.88;1747956;80;21022;-41
2021/04/27 09:12:29;;;;;;;2.72;2.02;;;;;;;10.40;43.43;100797.95;1729904;81;21000;-41
2021/04/27 09:14:57;;;;;;;2.75;2.47;;;;;;;10.30;44.47;100800.19;1768133;80;21259;-42
2021/04/27 09:17:30;;;;;;;4.62;2.25;;;;;;;10.19;43.54;100797.72;1729594;81;21060;-41
2021/04/27 09:19:58;;;;;;;4.25;2.20;;;;;;;9.98;44.34;100803.58;1778955;80;20994;-41
2021/04/27 09:22:31;;;;;;;4.45;2.70;;;;;;;9.94;45.37;100805.74;1729840;83;20945;-41
2021/04/27 09:25:01;;;;;;;6.97;4.60;;;;;;;10.08;45.37;100799.58;1760821;79;21018;-42
2021/04/27 09:27:45;;;;;;;2.50;2.30;;;;;;;10.33;44.70;100795.84;1729719;83;21266;-41
2021/04/27 09:30:19;;;;;;;7.62;2.30;;;;;;;10.41;43.21;100794.50;1777169;80;21038;-41
2021/04/27 09:33:09;;;;;;;3.10;1.90;;;;;;;10.29;43.45;100799.34;1730147;83;21027;-41
2021/04/27 09:35:46;;;;;;;4.10;3.08;;;;;;;10.24;42.95;100797.68;1760593;80;21018;-42
2021/04/27 09:38:23;;;;;;;8.48;3.35;;;;;;;10.23;43.86;100791.66;1730070;81;21592;-43
2021/04/27 09:40:57;;;;;;;;;;;;;;;10.32;44.09;100798.02;1756638;80;21575;-42
2021/04/27 09:43:33;;;;;;;4.17;2.80;;;;;;;10.32;43.64;100793.26;1780498;79;20139;-42
2021/04/27 09:46:05;;;;;;;5.35;2.67;;;;;;;10.40;42.29;100791.48;1773613;80;20919;-42
2021/04/27 09:48:54;;;;;;;3.15;2.30;;;;;;;10.34;43.23;100797.55;1712049;82;21065;-42
2021/04/27 09:51:30;;;;;;;6.12;2.20;;;;;;;10.30;43.53;100801.06;1728663;82;20982;-40
2021/04/27 09:54:01;;;;;;;3.60;2.35;;;;;;;10.35;41.96;100802.28;1755626;80;22379;-40
2021/04/27 09:56:35;;;;;;;2.98;2.50;;;;;;;10.19;42.76;100796.01;1784805;80;21484;-41
2021/04/27 09:59:16;;;;;;;3.87;3.02;;;;;;;10.00;42.57;100795.78;1784832;79;20951;-41
2021/04/27 10:01:50;;;;;;;4.75;3.00;;;;;;;9.84;43.71;100802.39;1771835;80;22212;-41
2021/04/27 10:04:20;;;;;;;4.80;2.85;;;;;;;9.82;44.46;100795.54;1755266;80;20943;-42
2021/04/27 10:06:48;;;;;;;2.67;2.47;;;;;;;9.82;44.25;100798.97;1704160;84;21378;-42
2021/04/27 10:09:16;;;;;;;2.85;2.65;;;;;;;9.77;44.09;100797.73;1731984;82;21016;-42
2021/04/27 10:11:44;;;;;;;5.70;2.50;;;;;;;9.74;44.63;100799.06;1767075;80;21324;-42
2021/04/27 10:14:12;;;;;;;5.95;3.00;;;;;;;9.70;45.33;100805.11;1731318;80;20982;-42
2021/04/27 10:16:40;;;;;;;3.17;2.52;;;;;;;9.71;45.19;100793.89;1784833;80;20895;-41
2021/04/27 10:19:08;;;;;;;8.58;2.90;;;;;;;9.81;45.08;100795.12;1785148;79;21236;-41
2021/04/27 10:21:39;;;;;;;9.05;2.85;;;;;;;9.84;43.93;100796.37;1776532;80;20967;-42
2021/04/27 10:24:13;;;;;;;14.85;3.20;;;;;;;9.77;44.83;100796.45;1784922;80;20951;-42
2021/04/27 10:26:46;;;;;;;3.37;2.72;;;;;;;9.84;44.63;100797.67;1754436;80;21081;-43
2021/04/27 10:29:22;;;;;;;6.10;2.70;;;;;;;9.88;44.15;100802.81;1703923;82;21729;-41
2021/04/27 10:32:25;;;;;;;418.97;275.22;;;;;;;9.90;44.38;100802.77;1723044;82;21226;-41
2021/04/27 10:35:02;;;;;;;52.05;26.12;;;;;;;9.96;45.20;100805.29;1784336;79;20915;-41
2021/04/27 10:37:34;;;;;;;19.90;9.80;;;;;;;10.11;44.06;100796.96;1784658;80;20935;-41
2021/04/27 10:40:01;;;;;;;11.68;3.80;;;;;;;10.35;44.86;100791.50;1780587;80;20934;-41
2021/04/27 10:42:33;;;;;;;4.75;3.12;;;;;;;10.53;43.36;100790.89;1784726;80;20951;-42
2021/04/27 10:45:07;;;;;;;29.45;3.20;;;;;;;10.59;43.57;100792.11;1784672;80;21190;-42
2021/04/27 10:47:43;;;;;;;11.68;6.60;;;;;;;10.61;42.23;100793.39;1785257;80;21009;-42
2021/04/27 10:50:31;;;;;;;22.10;13.53;;;;;;;10.66;39.77;100794.18;1787132;79;21495;-41
2021/04/27 10:53:31;;;;;;;24.63;10.25;;;;;;;10.69;36.84;100785.50;1788219;80;21599;-41
2021/04/27 10:55:59;;;;;;;11.12;6.78;;;;;;;10.73;36.35;100788.03;1788226;79;21013;-42
2021/04/27 10:58:48;;;;;;;3.08;2.65;;;;;;;10.69;37.92;100790.67;1785986;78;21181;-42
2021/04/27 11:01:20;;;;;;;11.08;3.08;;;;;;;10.63;35.54;100791.64;1759841;80;21656;-42
2021/04/27 11:03:50;;;;;;;18.32;7.72;;;;;;;10.38;39.40;100798.81;1782965;79;20953;-41
2021/04/27 11:06:17;;;;;;;14.90;3.75;;;;;;;10.38;41.63;100792.34;1782831;80;21578;-41
2021/04/27 11:08:56;;;;;;;28.83;10.98;;;;;;;10.30;41.63;100802.77;1783035;80;21041;-42
2021/04/27 11:11:28;;;;;;;20.10;8.00;;;;;;;10.03;41.78;100795.75;1783209;79;21149;-42
2021/04/27 11:14:20;;;;;;;16.02;6.80;;;;;;;9.83;43.56;100798.55;1783030;80;21028;-41
2021/04/27 11:16:54;;;;;;;364.68;220.93;;;;;;;9.63;41.88;100804.75;1777462;80;21001;-42
2021/04/27 11:19:31;;;;;;;12.40;6.53;;;;;;;9.31;43.00;100799.42;1782942;79;20961;-42
2021/04/27 11:22:30;;;;;;;9.93;6.42;;;;;;;9.18;43.16;100809.83;1783289;79;21004;-42
2021/04/27 11:25:00;;;;;;;5.67;4.58;;;;;;;8.99;44.11;100803.09;1783096;79;21365;-42
2021/04/27 11:27:38;;;;;;;8.00;3.90;;;;;;;9.05;44.43;100805.63;1782873;80;21016;-42
2021/04/27 11:30:15;;;;;;;6.03;3.67;;;;;;;9.10;44.81;100792.70;1783192;80;21618;-41
2021/04/27 11:32:45;;;;;;;3.55;3.22;;;;;;;9.18;44.62;100791.75;1783167;80;21048;-41
2021/04/27 11:35:19;;;;;;;6.15;4.65;;;;;;;9.22;43.97;100792.59;1783176;80;21598;-41
2021/04/27 11:37:51;;;;;;;17.15;4.40;;;;;;;9.19;43.52;100791.33;1782543;80;21355;-42
2021/04/27 11:40:36;;;;;;;10.45;7.35;;;;;;;9.36;45.00;100794.23;1783191;79;21162;-42
2021/04/27 11:43:13;;;;;;;5.45;3.58;;;;;;;9.65;44.51;100783.63;1783265;80;21573;-41
2021/04/27 11:45:44;;;;;;;19.85;9.78;;;;;;;9.92;43.85;100779.92;1783125;80;21664;-41
2021/04/27 11:48:16;;;;;;;75.25;45.38;;;;;;;10.08;42.67;100773.72;1783508;80;20930;-41
2021/04/27 11:50:43;;;;;;;231.28;123.07;;;;;;;10.16;42.79;100777.94;1784757;79;21426;-41